Time;durP1;ratioP1;P1;durP2;ratioP2;P2;SDS_P1;SDS_P2;PMS_P1;PMS_P2;Temp;Humidity;BMP_temperature;BMP_pressure;BME280_temperature;BME280_humidity;BME280_pressure;Samples;Min_cycle;Max_cycle;Signal;HPM_P1;HPM_P2
2023/09/26 00:01:07;;;;;;;9.02;2.88;;;16.10;99.90;;;;;;5039304;28;20063;-70
2023/09/26 00:03:33;;;;;;;9.07;3.10;;;16.10;99.90;;;;;;5056470;28;20052;-70
2023/09/26 00:05:59;;;;;;;7.35;3.42;;;16.10;99.90;;;;;;5062610;28;20079;-70
2023/09/26 00:08:24;;;;;;;8.20;3.40;;;16.00;99.90;;;;;;5070434;28;20113;-69
2023/09/26 00:10:50;;;;;;;7.18;2.80;;;16.00;99.90;;;;;;5052178;28;20123;-70
2023/09/26 00:13:16;;;;;;;5.80;3.10;;;15.90;99.90;;;;;;5066608;28;20139;-70
2023/09/26 00:15:42;;;;;;;7.47;3.10;;;15.90;99.90;;;;;;5069096;28;20041;-70
2023/09/26 00:18:08;;;;;;;8.63;3.67;;;15.80;99.90;;;;;;5044754;28;20053;-71
2023/09/26 00:20:39;;;;;;;6.95;3.40;;;15.90;99.90;;;;;;5059728;28;20106;-70
2023/09/26 00:23:06;;;;;;;7.13;2.95;;;15.90;99.90;;;;;;5060375;28;20052;-71
2023/09/26 00:25:32;;;;;;;7.80;2.95;;;15.80;99.90;;;;;;5036321;28;20045;-70
2023/09/26 00:27:58;;;;;;;6.45;3.10;;;15.80;99.90;;;;;;5043829;28;20071;-70
2023/09/26 00:30:28;;;;;;;7.80;3.35;;;15.80;99.90;;;;;;5062692;28;20135;-70
2023/09/26 00:32:53;;;;;;;6.20;3.40;;;15.80;99.90;;;;;;5078587;28;20187;-71
2023/09/26 00:35:19;;;;;;;7.75;3.40;;;15.70;99.90;;;;;;5034852;28;20139;-71
2023/09/26 00:37:50;;;;;;;8.40;3.25;;;15.70;99.90;;;;;;5074736;28;20044;-70
2023/09/26 00:40:18;;;;;;;9.57;3.67;;;15.70;99.90;;;;;;5051423;28;20055;-70
2023/09/26 00:42:45;;;;;;;9.45;3.33;;;15.70;99.90;;;;;;5045591;28;20439;-71
2023/09/26 00:45:12;;;;;;;8.82;3.17;;;15.70;99.90;;;;;;5048904;28;20412;-72
2023/09/26 00:47:39;;;;;;;9.75;3.70;;;15.70;99.90;;;;;;5056206;28;20054;-70
2023/09/26 00:50:07;;;;;;;6.63;2.85;;;15.70;99.90;;;;;;5041507;28;20041;-70
2023/09/26 00:52:34;;;;;;;7.25;3.67;;;15.60;99.90;;;;;;5068266;28;20048;-70
2023/09/26 00:55:03;;;;;;;9.27;3.70;;;15.60;99.90;;;;;;5060727;28;20463;-70
2023/09/26 00:57:33;;;;;;;7.88;3.50;;;15.60;99.90;;;;;;5057232;28;20048;-70
2023/09/26 01:00:01;;;;;;;9.63;3.70;;;15.60;99.90;;;;;;5059262;28;20622;-71
2023/09/26 01:02:26;;;;;;;8.00;3.85;;;15.60;99.90;;;;;;5069826;28;20049;-70
2023/09/26 01:04:53;;;;;;;6.38;3.25;;;15.50;99.90;;;;;;5042377;28;20068;-70
2023/09/26 01:07:19;;;;;;;6.78;3.33;;;15.50;99.90;;;;;;5059292;28;20127;-71
2023/09/26 01:09:45;;;;;;;8.25;3.53;;;15.50;99.90;;;;;;5083793;28;20051;-70
2023/09/26 01:12:11;;;;;;;7.95;3.47;;;15.50;99.90;;;;;;5059531;28;20044;-70
2023/09/26 01:14:37;;;;;;;6.90;3.88;;;15.40;99.90;;;;;;5063905;28;20083;-69
2023/09/26 01:17:03;;;;;;;8.18;4.30;;;15.30;99.90;;;;;;5052494;28;20044;-70
2023/09/26 01:19:29;;;;;;;8.77;3.97;;;15.30;99.90;;;;;;5049414;28;20056;-70
2023/09/26 01:21:55;;;;;;;8.05;3.75;;;15.30;99.90;;;;;;5044826;28;20067;-71
2023/09/26 01:24:21;;;;;;;7.63;3.78;;;15.30;99.90;;;;;;5051981;28;20086;-71
2023/09/26 01:26:47;;;;;;;9.25;4.38;;;15.20;99.90;;;;;;5040355;28;20171;-71
2023/09/26 01:29:13;;;;;;;6.30;3.60;;;15.20;99.90;;;;;;5047865;28;20454;-71
2023/09/26 01:31:39;;;;;;;8.60;4.10;;;15.10;99.90;;;;;;5070072;28;20071;-70
2023/09/26 01:34:05;;;;;;;8.40;3.70;;;15.10;99.90;;;;;;5065933;28;20041;-70
2023/09/26 01:36:31;;;;;;;8.18;3.47;;;15.10;99.90;;;;;;5054295;28;20098;-65
2023/09/26 01:38:57;;;;;;;9.68;3.83;;;15.10;99.90;;;;;;5060969;28;20047;-66
2023/09/26 01:41:24;;;;;;;6.80;3.17;;;15.00;99.90;;;;;;5054764;28;20048;-66
2023/09/26 01:43:50;;;;;;;6.22;3.17;;;15.00;99.90;;;;;;5060112;28;20048;-65
2023/09/26 01:46:19;;;;;;;6.47;3.50;;;15.00;99.90;;;;;;5055756;28;20059;-66
2023/09/26 01:48:45;;;;;;;7.82;3.40;;;14.90;99.90;;;;;;5049194;28;20052;-65
2023/09/26 01:51:10;;;;;;;8.23;3.97;;;14.90;99.90;;;;;;5055456;28;20036;-66
2023/09/26 01:53:36;;;;;;;8.05;3.80;;;14.90;99.90;;;;;;5047332;28;20489;-71
2023/09/26 01:56:02;;;;;;;7.18;3.63;;;14.80;99.90;;;;;;5080998;28;20036;-70
2023/09/26 01:58:28;;;;;;;7.80;3.58;;;14.80;99.90;;;;;;5070753;28;20165;-69
2023/09/26 02:00:53;;;;;;;5.90;3.20;;;14.80;99.90;;;;;;5060842;28;20135;-71
2023/09/26 02:03:19;;;;;;;8.15;3.53;;;14.70;99.90;;;;;;5047724;28;20052;-71
2023/09/26 02:05:45;;;;;;;7.22;3.50;;;14.70;99.90;;;;;;5070026;28;20041;-70
2023/09/26 02:08:11;;;;;;;7.30;3.55;;;14.70;99.90;;;;;;5059264;28;20132;-71
2023/09/26 02:10:37;;;;;;;7.82;3.83;;;14.70;99.90;;;;;;5051493;28;20540;-71
2023/09/26 02:13:03;;;;;;;8.77;4.10;;;14.70;99.90;;;;;;5051983;28;20048;-70
2023/09/26 02:15:29;;;;;;;9.05;3.95;;;14.60;99.90;;;;;;5054984;28;20048;-70
2023/09/26 02:17:55;;;;;;;7.28;3.95;;;14.60;99.90;;;;;;5041076;28;20472;-70
2023/09/26 02:20:20;;;;;;;8.07;3.63;;;14.60;99.90;;;;;;5060662;28;20072;-69
2023/09/26 02:22:49;;;;;;;8.68;4.65;;;14.50;99.90;;;;;;5051641;28;20059;-70
2023/09/26 02:25:16;;;;;;;8.50;3.55;;;14.50;99.90;;;;;;5036205;28;20052;-70
2023/09/26 02:27:43;;;;;;;7.93;4.20;;;14.50;99.90;;;;;;5045521;28;20481;-70
2023/09/26 02:30:10;;;;;;;8.63;4.43;;;14.50;99.90;;;;;;5056156;28;20405;-70
2023/09/26 02:32:37;;;;;;;8.52;4.45;;;14.40;99.90;;;;;;5061972;28;20598;-69
2023/09/26 02:35:03;;;;;;;9.07;4.25;;;14.40;99.90;;;;;;5052405;28;20044;-70
2023/09/26 02:37:29;;;;;;;8.00;4.38;;;14.40;99.90;;;;;;5095887;28;20124;-71
2023/09/26 02:39:55;;;;;;;9.35;4.28;;;14.40;99.90;;;;;;5055990;28;20044;-71
2023/09/26 02:42:21;;;;;;;7.18;3.78;;;14.30;99.90;;;;;;5046944;28;20501;-71
2023/09/26 02:44:47;;;;;;;8.07;4.43;;;14.30;99.90;;;;;;5060575;28;20512;-71
2023/09/26 02:47:15;;;;;;;7.20;3.97;;;14.30;99.90;;;;;;5061177;28;20122;-66
2023/09/26 02:49:41;;;;;;;8.00;4.25;;;14.20;99.90;;;;;;5069604;28;20401;-66
2023/09/26 02:52:08;;;;;;;6.13;3.67;;;14.20;99.90;;;;;;5060740;28;20048;-66
2023/09/26 02:54:34;;;;;;;7.07;3.92;;;14.20;99.90;;;;;;5042098;28;20052;-65
2023/09/26 02:56:59;;;;;;;8.68;4.00;;;14.20;99.90;;;;;;5053405;28;20067;-66
2023/09/26 02:59:25;;;;;;;8.02;4.38;;;14.20;99.90;;;;;;5054907;28;20056;-65
2023/09/26 03:01:54;;;;;;;8.32;3.78;;;14.10;99.90;;;;;;5041495;28;20047;-65
2023/09/26 03:04:19;;;;;;;6.90;3.97;;;14.10;99.90;;;;;;5061310;28;20123;-65
2023/09/26 03:06:45;;;;;;;6.97;3.88;;;14.00;99.90;;;;;;5052365;28;20452;-65
2023/09/26 03:09:11;;;;;;;7.63;3.78;;;14.00;99.90;;;;;;5065907;28;20406;-65
2023/09/26 03:11:36;;;;;;;6.72;3.95;;;13.90;99.90;;;;;;5111548;27;20079;-65
2023/09/26 03:14:02;;;;;;;7.90;4.45;;;13.90;99.90;;;;;;5068773;28;20783;-65
2023/09/26 03:16:28;;;;;;;8.25;4.40;;;13.90;99.90;;;;;;5084170;28;20106;-65
2023/09/26 03:18:54;;;;;;;7.43;4.65;;;13.90;99.90;;;;;;5067727;28;20044;-65
2023/09/26 03:21:21;;;;;;;6.43;4.00;;;13.90;99.90;;;;;;5050023;28;20055;-65
2023/09/26 03:23:47;;;;;;;7.78;4.40;;;13.90;99.90;;;;;;5048699;28;20116;-65
2023/09/26 03:26:14;;;;;;;8.10;4.60;;;13.90;99.90;;;;;;5049340;28;20159;-64
2023/09/26 03:28:40;;;;;;;8.30;4.70;;;13.80;99.90;;;;;;5075122;28;20752;-65
2023/09/26 03:31:08;;;;;;;8.13;4.53;;;13.80;99.90;;;;;;5061622;28;20056;-64
2023/09/26 03:33:34;;;;;;;7.90;4.90;;;13.80;99.90;;;;;;5066659;28;20048;-64
2023/09/26 03:36:00;;;;;;;7.45;4.82;;;13.80;99.90;;;;;;5039089;28;20105;-65
2023/09/26 03:38:26;;;;;;;9.60;5.40;;;13.70;99.90;;;;;;5058095;28;20048;-64
2023/09/26 03:41:02;;;;;;;11.00;5.30;;;13.70;99.90;;;;;;5066040;28;20040;-64
2023/09/26 03:43:29;;;;;;;8.73;4.85;;;13.70;99.90;;;;;;5073289;28;20501;-64
2023/09/26 03:46:05;;;;;;;9.63;4.88;;;13.70;99.90;;;;;;5039276;28;20060;-64
2023/09/26 03:48:32;;;;;;;8.95;5.32;;;13.70;99.90;;;;;;5060245;28;20076;-65
2023/09/26 03:51:14;;;;;;;7.43;4.47;;;13.70;99.90;;;;;;5043729;28;20055;-64
2023/09/26 03:53:42;;;;;;;9.60;5.32;;;13.60;99.90;;;;;;5088735;28;20159;-64
2023/09/26 03:56:08;;;;;;;9.52;4.95;;;13.60;99.90;;;;;;5068417;28;20435;-65
2023/09/26 03:58:35;;;;;;;9.13;5.30;;;13.60;99.90;;;;;;5063775;28;20048;-64
2023/09/26 04:01:12;;;;;;;9.43;4.80;;;13.60;99.90;;;;;;5084682;28;20115;-65
2023/09/26 04:03:39;;;;;;;11.18;5.35;;;13.60;99.90;;;;;;5039742;28;20110;-64
2023/09/26 04:06:05;;;;;;;7.30;4.75;;;13.60;99.90;;;;;;5065534;28;20044;-65
2023/09/26 04:08:31;;;;;;;8.27;5.50;;;13.60;99.90;;;;;;5070555;28;20079;-64
2023/09/26 04:10:57;;;;;;;9.73;5.57;;;13.60;99.90;;;;;;5063483;28;20123;-65
2023/09/26 04:13:23;;;;;;;7.80;5.15;;;13.60;99.90;;;;;;5080955;28;20051;-64
2023/09/26 04:15:49;;;;;;;8.43;4.97;;;13.60;99.90;;;;;;5085286;28;20112;-64
2023/09/26 04:18:15;;;;;;;8.60;5.15;;;13.60;99.90;;;;;;5058395;28;20087;-69
2023/09/26 04:20:41;;;;;;;10.38;5.65;;;13.60;99.90;;;;;;5070242;28;20084;-70
2023/09/26 04:23:08;;;;;;;8.00;4.95;;;13.50;99.90;;;;;;5052149;28;20048;-70
2023/09/26 04:25:34;;;;;;;9.07;5.07;;;13.50;99.90;;;;;;5066902;28;20039;-70
2023/09/26 04:28:00;;;;;;;10.25;5.78;;;13.50;99.90;;;;;;5050732;28;20062;-70
2023/09/26 04:30:26;;;;;;;9.27;5.30;;;13.50;99.90;;;;;;5051013;28;20044;-70
2023/09/26 04:32:52;;;;;;;7.95;5.28;;;13.50;99.90;;;;;;5069934;28;20050;-65
2023/09/26 04:35:18;;;;;;;8.70;5.78;;;13.40;99.90;;;;;;5057716;28;20045;-65
2023/09/26 04:37:44;;;;;;;8.73;5.18;;;13.50;99.90;;;;;;5042664;28;20039;-65
2023/09/26 04:40:10;;;;;;;11.05;5.40;;;13.40;99.90;;;;;;5045630;28;20052;-65
2023/09/26 04:42:41;;;;;;;10.65;5.43;;;13.40;99.90;;;;;;5064966;28;20647;-64
2023/09/26 04:45:08;;;;;;;11.02;5.38;;;13.50;99.90;;;;;;5041963;28;20056;-65
2023/09/26 04:47:35;;;;;;;12.18;7.25;;;13.40;99.90;;;;;;5048330;28;20513;-65
2023/09/26 04:50:01;;;;;;;9.10;5.50;;;13.50;99.90;;;;;;5055384;28;20049;-65
2023/09/26 04:52:27;;;;;;;10.45;6.35;;;13.40;99.90;;;;;;5049814;28;20052;-64
2023/09/26 04:54:53;;;;;;;10.93;6.05;;;13.50;99.90;;;;;;5046195;28;20410;-65
2023/09/26 04:57:18;;;;;;;12.48;7.40;;;13.40;99.90;;;;;;5032030;28;20048;-65
2023/09/26 04:59:44;;;;;;;12.88;7.00;;;13.50;99.90;;;;;;5054034;28;20044;-65
2023/09/26 05:02:10;;;;;;;12.73;7.53;;;13.40;99.90;;;;;;5062455;28;20063;-70
2023/09/26 05:04:36;;;;;;;11.75;7.55;;;13.40;99.90;;;;;;5048683;28;20041;-70
2023/09/26 05:07:02;;;;;;;12.05;7.72;;;13.50;99.90;;;;;;5053471;28;20592;-71
2023/09/26 05:09:27;;;;;;;10.43;7.22;;;13.50;99.90;;;;;;5061835;28;20406;-69
2023/09/26 05:11:53;;;;;;;11.13;7.70;;;13.50;99.90;;;;;;5085613;28;20045;-70
2023/09/26 05:14:19;;;;;;;11.68;7.63;;;13.50;99.90;;;;;;5063240;28;20059;-69
2023/09/26 05:16:45;;;;;;;11.95;7.03;;;13.50;99.90;;;;;;5040596;28;20067;-65
2023/09/26 05:19:10;;;;;;;14.02;7.82;;;13.50;99.90;;;;;;5040663;28;20048;-65
2023/09/26 05:21:36;;;;;;;13.00;8.07;;;13.50;99.90;;;;;;5048732;28;20043;-65
2023/09/26 05:24:02;;;;;;;12.82;8.05;;;13.50;99.90;;;;;;5043707;28;20045;-65
2023/09/26 05:26:28;;;;;;;11.82;7.18;;;13.50;99.90;;;;;;5058300;28;20045;-65
2023/09/26 05:28:53;;;;;;;12.40;7.53;;;13.50;99.90;;;;;;5062814;28;20052;-65
2023/09/26 05:31:19;;;;;;;11.55;7.95;;;13.50;99.90;;;;;;5088821;28;20045;-65
2023/09/26 05:33:45;;;;;;;11.98;7.90;;;13.50;99.90;;;;;;5055277;28;20051;-64
2023/09/26 05:36:10;;;;;;;10.70;8.07;;;13.50;99.90;;;;;;5061507;28;20076;-64
2023/09/26 05:38:36;;;;;;;13.68;8.02;;;13.50;99.90;;;;;;5063765;28;20056;-65
2023/09/26 05:41:02;;;;;;;11.82;8.00;;;13.50;99.90;;;;;;5066578;28;20493;-65
2023/09/26 05:43:32;;;;;;;13.20;8.40;;;13.50;99.90;;;;;;5060110;28;20056;-65
2023/09/26 05:45:57;;;;;;;13.65;7.70;;;13.50;99.90;;;;;;5063709;28;20056;-65
2023/09/26 05:48:23;;;;;;;12.98;8.63;;;13.60;99.90;;;;;;5064377;28;20040;-65
2023/09/26 05:50:56;;;;;;;15.43;8.70;;;13.60;99.90;;;;;;5060595;28;20763;-65
2023/09/26 05:53:22;;;;;;;12.27;8.25;;;13.60;99.90;;;;;;5035654;28;20053;-65
2023/09/26 05:55:51;;;;;;;11.85;8.95;;;13.60;99.90;;;;;;5057701;28;20044;-65
2023/09/26 05:58:18;;;;;;;13.15;7.95;;;13.60;99.90;;;;;;5060721;28;20521;-65
2023/09/26 06:00:46;;;;;;;13.10;8.43;;;13.60;99.90;;;;;;5055800;28;20052;-65
2023/09/26 06:03:14;;;;;;;13.35;8.27;;;13.60;99.90;;;;;;5064682;28;20044;-65
2023/09/26 06:05:40;;;;;;;13.07;8.55;;;13.60;99.90;;;;;;5044498;28;20071;-64
2023/09/26 06:08:06;;;;;;;14.70;8.68;;;13.60;99.90;;;;;;5064049;28;20055;-64
2023/09/26 06:10:32;;;;;;;11.23;8.00;;;13.60;99.90;;;;;;5039534;28;20056;-65
2023/09/26 06:12:58;;;;;;;17.35;8.63;;;13.60;99.90;;;;;;5051177;28;20064;-64
2023/09/26 06:15:24;;;;;;;12.88;8.30;;;13.70;99.90;;;;;;5068245;28;20060;-68
2023/09/26 06:17:57;;;;;;;14.40;8.07;;;13.70;99.90;;;;;;5056892;28;20196;-64
2023/09/26 06:20:23;;;;;;;12.18;8.10;;;13.70;99.90;;;;;;5063254;28;20714;-65
2023/09/26 06:22:49;;;;;;;15.65;8.90;;;13.70;99.90;;;;;;5050222;28;20059;-65
2023/09/26 06:25:14;;;;;;;15.90;8.77;;;13.70;99.90;;;;;;5065846;28;20055;-69
2023/09/26 06:27:40;;;;;;;11.65;7.50;;;13.80;99.90;;;;;;5057587;28;20048;-65
2023/09/26 06:30:06;;;;;;;12.70;8.55;;;13.80;99.90;;;;;;5056919;28;20052;-65
2023/09/26 06:32:34;;;;;;;13.52;8.55;;;13.80;99.90;;;;;;5055174;28;20037;-65
2023/09/26 06:35:00;;;;;;;13.20;7.97;;;13.80;99.90;;;;;;5065497;28;20043;-65
2023/09/26 06:37:26;;;;;;;13.18;8.02;;;13.80;99.90;;;;;;5056937;28;20048;-65
2023/09/26 06:39:52;;;;;;;16.92;8.18;;;13.90;99.90;;;;;;5090970;28;20059;-65
2023/09/26 06:42:18;;;;;;;13.40;7.82;;;13.90;99.90;;;;;;5047562;28;20061;-65
2023/09/26 06:44:43;;;;;;;14.77;8.48;;;13.90;99.90;;;;;;5060452;28;20478;-65
2023/09/26 06:47:10;;;;;;;12.07;7.50;;;13.90;99.90;;;;;;5056117;28;20045;-65
2023/09/26 06:49:36;;;;;;;14.63;7.63;;;14.00;99.90;;;;;;5052515;28;20060;-64
2023/09/26 06:52:01;;;;;;;13.98;8.18;;;14.00;99.90;;;;;;5030724;28;20749;-65
2023/09/26 06:54:27;;;;;;;11.77;7.53;;;14.00;99.90;;;;;;5058785;28;20513;-64
2023/09/26 06:56:53;;;;;;;14.20;8.18;;;14.10;99.90;;;;;;5057233;28;20048;-64
2023/09/26 06:59:18;;;;;;;15.88;8.82;;;14.10;99.90;;;;;;5037852;28;20460;-65
2023/09/26 07:01:44;;;;;;;12.65;8.57;;;14.10;99.90;;;;;;5053373;28;20075;-65
2023/09/26 07:04:14;;;;;;;11.60;7.82;;;14.10;99.90;;;;;;5071756;28;20689;-64
2023/09/26 07:06:41;;;;;;;13.10;8.50;;;14.10;99.90;;;;;;5032337;28;20044;-64
2023/09/26 07:09:07;;;;;;;14.32;8.25;;;14.20;99.90;;;;;;5031072;28;20045;-65
2023/09/26 07:11:33;;;;;;;13.60;8.30;;;14.20;99.90;;;;;;5045302;28;20061;-65
2023/09/26 07:13:59;;;;;;;15.00;8.07;;;14.30;99.90;;;;;;5043403;28;20733;-64
2023/09/26 07:16:25;;;;;;;13.82;7.95;;;14.30;99.90;;;;;;5076442;28;20056;-64
2023/09/26 07:18:51;;;;;;;14.18;7.57;;;14.30;99.90;;;;;;5031711;28;20131;-64
2023/09/26 07:21:17;;;;;;;13.45;7.90;;;14.40;99.90;;;;;;5048278;28;20053;-65
2023/09/26 07:23:43;;;;;;;12.45;7.88;;;14.40;99.90;;;;;;5045307;28;20044;-64
2023/09/26 07:26:13;;;;;;;12.32;6.90;;;14.50;99.90;;;;;;5074509;28;20040;-64
2023/09/26 07:28:45;;;;;;;13.90;7.97;;;14.50;99.90;;;;;;5030020;28;20048;-64
2023/09/26 07:31:15;;;;;;;14.95;7.82;;;14.50;99.90;;;;;;5036211;28;20090;-65
2023/09/26 07:33:41;;;;;;;13.25;7.53;;;14.60;99.90;;;;;;5037551;28;22036;-65
2023/09/26 07:36:08;;;;;;;13.65;7.60;;;14.60;99.90;;;;;;5035336;28;20049;-64
2023/09/26 07:38:34;;;;;;;11.88;7.47;;;14.60;99.90;;;;;;5036004;28;20049;-65
2023/09/26 07:41:00;;;;;;;13.90;8.35;;;14.70;99.90;;;;;;5029884;28;20052;-65
2023/09/26 07:43:29;;;;;;;15.18;7.93;;;14.70;99.90;;;;;;5074033;28;20053;-65
2023/09/26 07:46:04;;;;;;;13.50;8.10;;;14.70;99.90;;;;;;5035134;28;20033;-65
2023/09/26 07:48:30;;;;;;;15.63;7.80;;;14.70;99.90;;;;;;5053364;28;20048;-65
2023/09/26 07:50:56;;;;;;;13.40;7.55;;;14.80;99.90;;;;;;5037324;28;20037;-65
2023/09/26 07:53:21;;;;;;;15.38;7.05;;;14.80;99.90;;;;;;5024770;28;20051;-64
2023/09/26 07:55:48;;;;;;;11.50;7.30;;;14.80;99.90;;;;;;5027944;28;20052;-64
2023/09/26 07:58:15;;;;;;;13.95;7.40;;;14.80;99.90;;;;;;5036039;28;20045;-64
2023/09/26 08:00:41;;;;;;;13.50;7.85;;;14.80;99.90;;;;;;5065116;28;20055;-65
2023/09/26 08:03:07;;;;;;;15.50;8.00;;;14.90;99.90;;;;;;5033989;28;20040;-65
2023/09/26 08:05:33;;;;;;;14.90;7.85;;;14.90;99.90;;;;;;5038306;28;20555;-65
2023/09/26 08:08:03;;;;;;;12.50;7.45;;;14.90;99.90;;;;;;5073947;28;20060;-65
2023/09/26 08:10:29;;;;;;;13.95;7.57;;;14.90;99.90;;;;;;5045159;28;20053;-65
2023/09/26 08:12:54;;;;;;;15.52;7.40;;;15.00;99.90;;;;;;5054331;28;20383;-71
2023/09/26 08:15:20;;;;;;;11.80;7.45;;;15.00;99.90;;;;;;5053367;28;20076;-70
2023/09/26 08:17:46;;;;;;;13.98;7.72;;;15.10;99.90;;;;;;5041888;28;20070;-65
2023/09/26 08:20:12;;;;;;;15.32;7.93;;;15.10;99.90;;;;;;5043281;28;20136;-65
2023/09/26 08:22:38;;;;;;;14.25;7.97;;;15.10;99.90;;;;;;5055300;28;20052;-65
2023/09/26 08:25:04;;;;;;;13.98;7.45;;;15.20;99.90;;;;;;5061162;28;20047;-65
2023/09/26 08:27:31;;;;;;;14.13;7.38;;;15.20;99.90;;;;;;5061895;28;20401;-65
2023/09/26 08:29:59;;;;;;;13.90;8.23;;;15.20;99.90;;;;;;5041616;28;20048;-65
2023/09/26 08:32:26;;;;;;;12.90;6.80;;;15.30;99.90;;;;;;5071059;27;20894;-65
2023/09/26 08:34:51;;;;;;;12.25;7.50;;;15.40;99.90;;;;;;5070217;28;20048;-65
2023/09/26 08:37:17;;;;;;;11.70;6.90;;;15.40;99.90;;;;;;5055441;28;21443;-65
2023/09/26 08:39:43;;;;;;;14.18;7.15;;;15.40;99.90;;;;;;5044439;28;20129;-67
2023/09/26 08:42:17;;;;;;;12.98;7.95;;;15.40;99.90;;;;;;5057902;28;20072;-66
2023/09/26 08:44:43;;;;;;;11.88;6.82;;;15.40;99.90;;;;;;5037929;28;20132;-65
2023/09/26 08:47:09;;;;;;;14.10;6.60;;;15.50;99.90;;;;;;5068528;28;20048;-65
2023/09/26 08:49:40;;;;;;;16.25;7.05;;;15.50;99.90;;;;;;5057045;28;20079;-65
2023/09/26 08:52:05;;;;;;;12.88;6.97;;;15.50;99.90;;;;;;5034007;28;20085;-65
2023/09/26 08:54:31;;;;;;;11.52;6.72;;;15.80;99.90;;;;;;5081287;28;20388;-65
2023/09/26 08:56:59;;;;;;;12.68;6.97;;;15.70;99.90;;;;;;5053651;28;20083;-65
2023/09/26 08:59:26;;;;;;;11.30;6.97;;;15.70;99.90;;;;;;5020468;28;20036;-67
2023/09/26 09:01:52;;;;;;;12.95;6.95;;;15.80;99.90;;;;;;5085583;28;20719;-65
2023/09/26 09:04:21;;;;;;;12.93;7.00;;;15.90;99.90;;;;;;5049845;28;20045;-66
2023/09/26 09:06:47;;;;;;;12.50;7.22;;;15.90;99.90;;;;;;5039747;28;20116;-65
2023/09/26 09:09:13;;;;;;;13.38;6.32;;;16.00;99.90;;;;;;5054799;28;20699;-65
2023/09/26 09:11:39;;;;;;;11.07;6.20;;;16.10;99.90;;;;;;5053898;28;20041;-66
2023/09/26 09:14:06;;;;;;;15.32;6.57;;;16.20;99.90;;;;;;5041336;28;20106;-66
2023/09/26 09:16:32;;;;;;;13.55;6.85;;;16.20;99.90;;;;;;5042968;28;20048;-66
2023/09/26 09:18:58;;;;;;;15.45;6.50;;;16.30;99.90;;;;;;5042659;28;20052;-67
2023/09/26 09:21:31;;;;;;;12.07;6.43;;;16.40;99.90;;;;;;5040698;28;20066;-66
2023/09/26 09:23:58;;;;;;;13.50;6.32;;;16.60;99.90;;;;;;5043078;28;20639;-66
2023/09/26 09:26:28;;;;;;;13.73;5.80;;;16.60;99.90;;;;;;5052214;28;20048;-66
2023/09/26 09:28:55;;;;;;;13.88;6.43;;;16.70;99.90;;;;;;5076287;27;20045;-66
2023/09/26 09:31:22;;;;;;;12.63;6.40;;;16.70;99.90;;;;;;5049857;28;20052;-67
2023/09/26 09:33:52;;;;;;;11.00;5.97;;;16.80;99.90;;;;;;5054860;28;20340;-66
2023/09/26 09:36:19;;;;;;;10.65;5.70;;;16.80;99.90;;;;;;5053146;28;20066;-66
2023/09/26 09:38:45;;;;;;;17.00;6.45;;;16.80;99.90;;;;;;5048715;28;20067;-67
2023/09/26 09:41:11;;;;;;;11.82;6.13;;;16.80;99.90;;;;;;5045041;28;21355;-66
2023/09/26 09:43:40;;;;;;;11.70;6.03;;;16.90;99.90;;;;;;5035402;28;20052;-65
2023/09/26 09:46:10;;;;;;;14.05;5.80;;;17.00;99.90;;;;;;5065907;28;20508;-65
2023/09/26 09:48:44;;;;;;;12.95;5.90;;;17.10;99.90;;;;;;5033481;28;20045;-65
2023/09/26 09:51:15;;;;;;;11.57;5.05;;;17.20;99.90;;;;;;5025444;28;20052;-66
2023/09/26 09:53:42;;;;;;;11.35;4.80;;;17.30;99.90;;;;;;5046661;28;20135;-66
2023/09/26 09:56:09;;;;;;;12.00;5.00;;;17.40;99.90;;;;;;5036645;28;20047;-66
2023/09/26 09:58:45;;;;;;;10.18;4.68;;;17.50;99.90;;;;;;5031604;28;20544;-66
2023/09/26 10:01:14;;;;;;;13.13;4.32;;;17.50;99.90;;;;;;5047101;28;20598;-65
2023/09/26 10:03:41;;;;;;;11.02;3.85;;;17.60;99.90;;;;;;5045205;28;20052;-66
2023/09/26 10:06:08;;;;;;;11.05;4.28;;;17.60;99.90;;;;;;5031744;28;21850;-71
2023/09/26 10:08:35;;;;;;;10.18;4.38;;;17.70;99.90;;;;;;5050227;28;20637;-72
2023/09/26 10:11:04;;;;;;;10.40;4.60;;;17.80;99.90;;;;;;5043175;28;20041;-70
2023/09/26 10:13:30;;;;;;;11.40;4.32;;;17.90;99.90;;;;;;5058093;28;20394;-70
2023/09/26 10:16:06;;;;;;;12.25;4.65;;;17.90;99.90;;;;;;5051429;28;20049;-71
2023/09/26 10:18:37;;;;;;;10.25;4.90;;;18.00;99.90;;;;;;5035882;28;20045;-72
2023/09/26 10:21:03;;;;;;;11.38;4.75;;;18.10;99.90;;;;;;5043214;28;20633;-69
2023/09/26 10:23:29;;;;;;;10.05;4.90;;;18.10;99.90;;;;;;5082286;27;20090;-69
2023/09/26 10:25:54;;;;;;;9.95;5.00;;;18.20;99.90;;;;;;5053420;28;20048;-69
2023/09/26 10:28:21;;;;;;;11.05;4.95;;;18.30;99.90;;;;;;5049393;28;20155;-68
2023/09/26 10:30:54;;;;;;;11.75;4.75;;;18.30;99.90;;;;;;5050770;28;20061;-69
2023/09/26 10:33:20;;;;;;;11.55;4.10;;;18.40;99.90;;;;;;5049180;28;20083;-69
2023/09/26 10:35:45;;;;;;;11.90;4.22;;;18.40;99.90;;;;;;5047914;28;20131;-69
2023/09/26 10:38:18;;;;;;;11.23;3.95;;;18.40;99.90;;;;;;5030105;28;20048;-69
2023/09/26 10:40:48;;;;;;;10.57;3.90;;;18.50;99.90;;;;;;5051757;28;20532;-69
2023/09/26 10:43:17;;;;;;;10.52;3.85;;;18.50;99.90;;;;;;5046884;28;20459;-69
2023/09/26 10:45:45;;;;;;;8.23;3.78;;;18.50;99.90;;;;;;5081399;27;20147;-69
2023/09/26 10:48:17;;;;;;;9.93;3.95;;;18.50;99.90;;;;;;5050830;28;20041;-69
2023/09/26 10:50:43;;;;;;;8.23;3.53;;;18.50;99.90;;;;;;5075846;27;20052;-69
2023/09/26 10:53:09;;;;;;;7.63;3.55;;;18.60;99.90;;;;;;5050452;28;20502;-69
2023/09/26 10:55:36;;;;;;;8.32;3.53;;;18.60;99.90;;;;;;5052424;28;20581;-70
2023/09/26 10:58:02;;;;;;;7.88;3.25;;;18.60;99.90;;;;;;5048748;28;20330;-69
2023/09/26 11:00:28;;;;;;;10.75;3.60;;;18.60;99.90;;;;;;5055615;28;20637;-69
2023/09/26 11:02:54;;;;;;;8.23;3.38;;;18.70;99.90;;;;;;5053703;28;20040;-69
2023/09/26 11:05:20;;;;;;;7.75;3.13;;;18.70;99.90;;;;;;5054674;28;20107;-70
2023/09/26 11:07:46;;;;;;;12.18;3.53;;;18.70;99.90;;;;;;5083228;28;20052;-70
2023/09/26 11:10:15;;;;;;;8.27;3.42;;;18.70;99.90;;;;;;5048817;28;20049;-70
2023/09/26 11:12:43;;;;;;;10.18;3.30;;;18.70;99.90;;;;;;5040320;28;20049;-69
2023/09/26 11:15:09;;;;;;;10.80;3.72;;;18.70;99.90;;;;;;5057372;28;20111;-66
2023/09/26 11:17:36;;;;;;;9.60;3.35;;;18.70;99.90;;;;;;5056407;28;20124;-66
2023/09/26 11:20:07;;;;;;;8.25;3.42;;;18.80;99.90;;;;;;5050455;28;20049;-66
2023/09/26 11:22:48;;;;;;;10.73;3.97;;;18.80;99.90;;;;;;5040891;28;20731;-66
2023/09/26 11:25:15;;;;;;;12.30;3.45;;;18.80;99.90;;;;;;5066052;28;20070;-66
2023/09/26 11:27:45;;;;;;;9.07;3.63;;;18.80;99.90;;;;;;5028061;28;20045;-67
2023/09/26 11:30:20;;;;;;;9.52;3.65;;;18.80;99.90;;;;;;5038146;28;20072;-69
2023/09/26 11:32:50;;;;;;;12.40;3.70;;;18.90;99.90;;;;;;5080771;28;20048;-69
2023/09/26 11:35:17;;;;;;;8.98;3.67;;;18.90;99.90;;;;;;5035665;28;20055;-69
2023/09/26 11:37:47;;;;;;;8.73;3.40;;;18.90;99.90;;;;;;5052673;28;20053;-69
2023/09/26 11:40:21;;;;;;;8.27;3.85;;;18.90;99.90;;;;;;5057659;28;20072;-69
2023/09/26 11:42:51;;;;;;;9.02;3.33;;;18.90;99.90;;;;;;5075032;28;20064;-69
2023/09/26 11:45:29;;;;;;;7.63;3.67;;;19.00;99.90;;;;;;5054011;28;20061;-69
2023/09/26 11:47:57;;;;;;;7.85;3.33;;;19.00;99.90;;;;;;5054040;28;20805;-69
2023/09/26 11:50:24;;;;;;;7.78;3.38;;;19.00;99.90;;;;;;5058400;28;20111;-69
2023/09/26 11:52:54;;;;;;;8.73;3.65;;;19.10;99.90;;;;;;5038231;28;20064;-69
2023/09/26 11:55:20;;;;;;;8.25;3.38;;;19.10;99.90;;;;;;5058750;28;20048;-69
2023/09/26 11:57:49;;;;;;;7.40;3.30;;;19.10;99.90;;;;;;5054518;28;20080;-68
2023/09/26 12:00:16;;;;;;;8.35;3.42;;;19.20;99.90;;;;;;5035026;28;20083;-68
2023/09/26 12:02:46;;;;;;;9.27;3.03;;;19.20;99.90;;;;;;5057142;28;20622;-69
2023/09/26 12:05:15;;;;;;;10.63;3.35;;;19.30;99.90;;;;;;5057695;28;20047;-69
2023/09/26 12:07:41;;;;;;;7.32;3.33;;;19.30;99.90;;;;;;5049749;28;20110;-69
2023/09/26 12:10:08;;;;;;;8.90;3.35;;;19.40;99.90;;;;;;5029171;28;20159;-69
2023/09/26 12:12:35;;;;;;;11.65;3.65;;;19.40;99.90;;;;;;5052589;28;20044;-69
2023/09/26 12:15:22;;;;;;;8.88;3.58;;;19.50;99.90;;;;;;5033029;28;20098;-68
2023/09/26 12:17:52;;;;;;;6.78;3.30;;;19.50;99.90;;;;;;5059575;28;20051;-68
2023/09/26 12:20:22;;;;;;;9.27;3.47;;;19.60;99.90;;;;;;5053907;28;20052;-69
2023/09/26 12:22:49;;;;;;;9.27;3.47;;;19.70;99.90;;;;;;5035199;28;20786;-70
2023/09/26 12:25:15;;;;;;;8.00;3.50;;;19.70;99.90;;;;;;5072601;28;20037;-69
2023/09/26 12:27:41;;;;;;;7.93;3.88;;;19.80;99.90;;;;;;5037570;28;20389;-69
2023/09/26 12:30:07;;;;;;;8.38;3.78;;;19.80;99.90;;;;;;5041758;28;20053;-69
2023/09/26 12:32:33;;;;;;;8.02;3.63;;;19.90;99.90;;;;;;5048777;28;20076;-70
2023/09/26 12:34:59;;;;;;;8.40;4.03;;;19.90;99.90;;;;;;5058850;28;20110;-69
2023/09/26 12:37:24;;;;;;;8.50;3.92;;;19.90;99.90;;;;;;5057506;28;20046;-69
2023/09/26 12:39:50;;;;;;;10.15;4.43;;;19.90;99.90;;;;;;5051046;28;20171;-69